Time;durP1;ratioP1;P1;durP2;ratioP2;P2;SDS_P1;SDS_P2;PMS_P1;PMS_P2;Temp;Humidity;BMP_temperature;BMP_pressure;BME280_temperature;BME280_humidity;BME280_pressure;Samples;Min_cycle;Max_cycle;Signal;HPM_P1;HPM_P2
2022/01/29 00:01:56;;;;;;;22.10;12.10;;;9.40;99.90;;;;;;5109250;27;20538;-72
2022/01/29 00:04:22;;;;;;;23.77;11.80;;;9.20;99.90;;;;;;5106103;27;20070;-72
2022/01/29 00:06:48;;;;;;;17.05;10.52;;;9.80;99.90;;;;;;5090593;28;20126;-73
2022/01/29 00:09:15;;;;;;;30.67;14.52;;;9.70;99.90;;;;;;5093090;27;20125;-72
2022/01/29 00:11:42;;;;;;;25.65;12.75;;;9.80;99.90;;;;;;5109291;27;20058;-74
2022/01/29 00:14:08;;;;;;;24.33;14.20;;;9.30;99.90;;;;;;5109623;27;20042;-72
2022/01/29 00:16:35;;;;;;;24.80;12.85;;;9.90;99.90;;;;;;5130102;27;20127;-73
2022/01/29 00:19:01;;;;;;;23.30;13.85;;;9.50;99.90;;;;;;5129973;27;20057;-75
2022/01/29 00:21:26;;;;;;;24.40;12.93;;;8.90;99.90;;;;;;5083788;27;20047;-72
2022/01/29 00:23:52;;;;;;;22.15;11.75;;;9.50;99.90;;;;;;5103042;27;20122;-73
2022/01/29 00:26:21;;;;;;;31.85;13.50;;;9.60;99.90;;;;;;5102730;27;20543;-72
2022/01/29 00:28:47;;;;;;;28.70;14.10;;;9.00;99.90;;;;;;5111750;27;20056;-72
2022/01/29 00:31:13;;;;;;;32.50;13.02;;;9.50;99.90;;;;;;5115279;27;20038;-74
2022/01/29 00:33:39;;;;;;;21.77;12.70;;;9.20;99.90;;;;;;5119564;27;20498;-73
2022/01/29 00:36:06;;;;;;;22.33;13.50;;;10.20;99.90;;;;;;5117231;27;20117;-74
2022/01/29 00:38:33;;;;;;;28.88;14.00;;;9.50;99.90;;;;;;5096156;27;20112;-72
2022/01/29 00:40:58;;;;;;;43.47;13.68;;;9.80;99.90;;;;;;5131834;27;20789;-74
2022/01/29 00:43:24;;;;;;;27.92;13.50;;;10.20;99.90;;;;;;5125708;27;20040;-74
2022/01/29 00:45:50;;;;;;;24.73;13.55;;;10.50;99.90;;;;;;5106286;27;20454;-74
2022/01/29 00:48:16;;;;;;;27.88;14.00;;;9.60;99.90;;;;;;5115653;27;20042;-74
2022/01/29 00:50:41;;;;;;;31.67;15.45;;;9.40;99.90;;;;;;5130268;27;20615;-74
2022/01/29 00:53:07;;;;;;;24.05;14.45;;;9.40;99.90;;;;;;5131556;27;20531;-74
2022/01/29 00:55:33;;;;;;;25.92;14.32;;;10.00;99.90;;;;;;5123184;27;20073;-75
2022/01/29 00:57:58;;;;;;;31.92;15.88;;;10.60;99.90;;;;;;5114579;27;20038;-75
2022/01/29 01:00:24;;;;;;;31.85;14.93;;;10.90;99.90;;;;;;5115453;27;20099;-75
2022/01/29 01:02:50;;;;;;;26.65;17.05;;;10.80;99.90;;;;;;5094763;27;20432;-75
2022/01/29 01:05:16;;;;;;;25.48;15.70;;;11.00;99.90;;;;;;5108402;28;20429;-75
2022/01/29 01:07:42;;;;;;;27.88;15.25;;;11.10;99.90;;;;;;5112662;27;20043;-74
2022/01/29 01:10:09;;;;;;;26.52;15.43;;;10.00;99.90;;;;;;5098433;27;20051;-74
2022/01/29 01:12:35;;;;;;;28.33;18.15;;;11.50;99.90;;;;;;5077116;28;20043;-75
2022/01/29 01:15:02;;;;;;;33.65;16.60;;;10.90;99.90;;;;;;5097848;27;20096;-75
2022/01/29 01:17:28;;;;;;;33.88;17.60;;;10.00;99.90;;;;;;5111678;28;20517;-75
2022/01/29 01:19:54;;;;;;;24.13;14.68;;;10.30;99.90;;;;;;5123787;27;20043;-75
2022/01/29 01:22:20;;;;;;;28.85;15.00;;;11.10;99.90;;;;;;5128961;27;20035;-75
2022/01/29 01:24:47;;;;;;;28.65;15.85;;;10.80;99.90;;;;;;5114106;27;20050;-75
2022/01/29 01:27:13;;;;;;;25.88;15.20;;;10.70;99.90;;;;;;5132291;27;20035;-76
2022/01/29 01:29:39;;;;;;;32.53;15.65;;;10.40;99.90;;;;;;5115774;27;20038;-75
2022/01/29 01:32:10;;;;;;;31.83;17.63;;;11.00;99.90;;;;;;5114986;27;20039;-76
2022/01/29 01:34:39;;;;;;;30.58;14.70;;;10.50;99.90;;;;;;5106458;27;20035;-76
2022/01/29 01:37:09;;;;;;;28.65;14.68;;;11.20;99.90;;;;;;5093945;28;20130;-75
2022/01/29 01:39:37;;;;;;;29.83;15.05;;;10.00;99.90;;;;;;5127659;27;20061;-75
2022/01/29 01:42:05;;;;;;;29.13;14.63;;;11.70;99.90;;;;;;5131112;27;20035;-75
2022/01/29 01:44:40;;;;;;;25.58;14.10;;;11.70;99.90;;;;;;5114871;27;20043;-75
2022/01/29 01:47:06;;;;;;;;;;;10.10;99.90;;;;;;5119562;27;20049;-75
2022/01/29 01:49:32;;;;;;;28.98;15.40;;;10.50;99.90;;;;;;5107853;27;19915;-75
2022/01/29 01:51:58;;;;;;;27.42;15.15;;;11.30;99.90;;;;;;5113327;27;20049;-74
2022/01/29 01:54:24;;;;;;;30.15;15.02;;;11.30;99.90;;;;;;5130359;27;20070;-75
2022/01/29 01:56:50;;;;;;;31.10;15.30;;;11.20;99.90;;;;;;5114795;27;20077;-75
2022/01/29 01:59:15;;;;;;;26.70;14.60;;;11.70;99.90;;;;;;5130601;27;20035;-75
2022/01/29 02:01:41;;;;;;;25.15;13.48;;;10.10;99.90;;;;;;5114032;27;20118;-75
2022/01/29 02:04:07;;;;;;;25.83;14.00;;;10.40;99.90;;;;;;5130345;27;20039;-75
2022/01/29 02:06:33;;;;;;;27.60;14.63;;;10.10;99.90;;;;;;5113281;27;20035;-75
2022/01/29 02:09:00;;;;;;;29.83;15.05;;;11.80;99.90;;;;;;5096100;27;20035;-75
2022/01/29 02:11:27;;;;;;;28.05;14.57;;;10.20;99.90;;;;;;5127623;27;20096;-74
2022/01/29 02:13:56;;;;;;;31.80;15.38;;;10.70;99.90;;;;;;5130508;27;20027;-74
2022/01/29 02:16:22;;;;;;;27.10;13.65;;;12.10;99.90;;;;;;5130845;27;20043;-75
2022/01/29 02:18:48;;;;;;;28.13;14.20;;;10.90;99.90;;;;;;5088580;27;20039;-74
2022/01/29 02:21:15;;;;;;;26.90;14.23;;;10.50;99.90;;;;;;5113266;27;20475;-74
2022/01/29 02:23:41;;;;;;;27.38;14.23;;;10.80;99.90;;;;;;5129363;27;20035;-74
2022/01/29 02:26:07;;;;;;;30.77;14.38;;;11.90;99.90;;;;;;5112701;27;20623;-74
2022/01/29 02:28:33;;;;;;;29.00;14.20;;;10.50;99.90;;;;;;5130731;27;20047;-73
2022/01/29 02:31:02;;;;;;;29.50;14.38;;;11.10;99.90;;;;;;5127840;27;20044;-73
2022/01/29 02:33:32;;;;;;;25.00;13.77;;;11.20;99.90;;;;;;5130402;27;20095;-74
2022/01/29 02:35:58;;;;;;;27.45;14.00;;;11.70;99.90;;;;;;5127719;27;20728;-73
2022/01/29 02:38:25;;;;;;;30.38;14.70;;;10.30;99.90;;;;;;5111396;27;20093;-75
2022/01/29 02:40:56;;;;;;;27.02;13.57;;;11.40;99.90;;;;;;5129902;27;20071;-74
2022/01/29 02:43:33;;;;;;;27.63;14.05;;;10.60;99.90;;;;;;5132845;27;20067;-74
2022/01/29 02:46:06;;;;;;;30.33;13.63;;;10.40;99.90;;;;;;5111231;27;20080;-75
2022/01/29 02:48:32;;;;;;;29.13;14.15;;;10.40;99.90;;;;;;5130099;27;20031;-74
2022/01/29 02:50:57;;;;;;;26.27;13.70;;;11.70;99.90;;;;;;5108927;27;20039;-75
2022/01/29 02:53:23;;;;;;;27.15;12.93;;;10.70;99.90;;;;;;5113056;27;20043;-74
2022/01/29 02:55:49;;;;;;;21.85;13.20;;;10.90;99.90;;;;;;5112811;27;20403;-75
2022/01/29 02:58:14;;;;;;;25.25;12.85;;;11.10;99.90;;;;;;5093095;28;20096;-74
2022/01/29 03:00:41;;;;;;;31.73;14.18;;;12.00;99.90;;;;;;5097888;27;20035;-75
2022/01/29 03:03:07;;;;;;;26.65;13.43;;;12.00;99.90;;;;;;5126455;27;20027;-74
2022/01/29 03:05:33;;;;;;;26.23;12.93;;;11.80;99.90;;;;;;5111388;27;20031;-74
2022/01/29 03:07:58;;;;;;;27.38;14.18;;;11.60;99.90;;;;;;5110482;27;20092;-74
2022/01/29 03:10:25;;;;;;;25.98;13.45;;;11.20;99.90;;;;;;5129877;27;20035;-75
2022/01/29 03:12:51;;;;;;;22.30;12.73;;;10.30;99.90;;;;;;5113571;27;20492;-75
2022/01/29 03:15:17;;;;;;;28.33;13.95;;;11.60;99.90;;;;;;5113099;27;20054;-75
2022/01/29 03:17:43;;;;;;;29.38;14.43;;;12.10;99.90;;;;;;5112242;27;20035;-75
2022/01/29 03:20:10;;;;;;;29.38;13.30;;;11.50;99.90;;;;;;5085921;27;20559;-75
2022/01/29 03:22:37;;;;;;;29.75;14.07;;;12.10;99.90;;;;;;5064986;28;20122;-75
2022/01/29 03:25:04;;;;;;;23.40;12.57;;;11.90;99.90;;;;;;5100045;27;20043;-75
2022/01/29 03:27:30;;;;;;;26.92;13.80;;;11.40;99.90;;;;;;5096812;27;20050;-75
2022/01/29 03:29:55;;;;;;;29.15;13.57;;;10.30;99.90;;;;;;5078871;27;20044;-76
2022/01/29 03:32:21;;;;;;;20.00;12.52;;;10.80;99.90;;;;;;5090698;28;20114;-75
2022/01/29 03:34:47;;;;;;;26.13;12.45;;;11.30;99.90;;;;;;5118048;27;20480;-76
2022/01/29 03:37:13;;;;;;;24.02;12.35;;;11.10;99.90;;;;;;5095557;27;20050;-75
2022/01/29 03:39:41;;;;;;;22.63;11.57;;;11.60;99.90;;;;;;5128909;27;20494;-75
2022/01/29 03:42:09;;;;;;;28.70;12.35;;;10.80;99.90;;;;;;5109764;28;20407;-75
2022/01/29 03:44:34;;;;;;;22.42;11.88;;;10.50;99.90;;;;;;5092265;28;20521;-74
2022/01/29 03:47:00;;;;;;;24.38;11.27;;;10.30;99.90;;;;;;5092455;28;20039;-74
2022/01/29 03:49:26;;;;;;;23.92;13.48;;;11.60;99.90;;;;;;5114617;28;20475;-75
2022/01/29 03:51:52;;;;;;;22.45;12.50;;;11.30;99.90;;;;;;5108734;28;20051;-74
2022/01/29 03:54:18;;;;;;;26.20;12.50;;;11.90;99.90;;;;;;5125699;28;20035;-75
2022/01/29 03:56:44;;;;;;;26.60;13.02;;;10.70;99.90;;;;;;5111995;28;20677;-74
2022/01/29 03:59:09;;;;;;;22.23;12.30;;;10.80;99.90;;;;;;5112302;28;20043;-75
2022/01/29 04:01:35;;;;;;;23.20;11.90;;;10.40;99.90;;;;;;5109713;28;20072;-74
2022/01/29 04:04:01;;;;;;;19.00;11.32;;;11.90;99.90;;;;;;5109296;28;20474;-73
2022/01/29 04:06:27;;;;;;;23.67;12.82;;;10.50;99.90;;;;;;5111522;28;20118;-75
2022/01/29 04:08:52;;;;;;;30.13;12.27;;;11.20;99.90;;;;;;5128423;28;20040;-75
2022/01/29 04:11:18;;;;;;;25.08;12.45;;;11.40;99.90;;;;;;5126477;28;20390;-74
2022/01/29 04:13:47;;;;;;;22.23;12.68;;;10.30;99.90;;;;;;5111676;28;20432;-75
2022/01/29 04:16:14;;;;;;;19.90;11.77;;;11.70;99.90;;;;;;5129893;28;20047;-76
2022/01/29 04:18:40;;;;;;;20.80;11.70;;;11.60;99.90;;;;;;5113293;28;20124;-75
2022/01/29 04:21:06;;;;;;;22.73;13.40;;;11.10;99.90;;;;;;5128246;28;20112;-75
2022/01/29 04:23:33;;;;;;;27.67;12.10;;;10.30;99.90;;;;;;5102685;28;20032;-75
2022/01/29 04:26:00;;;;;;;22.58;12.60;;;11.50;99.90;;;;;;5120798;28;20023;-75
2022/01/29 04:28:30;;;;;;;23.33;12.75;;;11.40;99.90;;;;;;5102528;28;20141;-75
2022/01/29 04:31:01;;;;;;;22.05;12.73;;;10.70;99.90;;;;;;5128637;28;20043;-76
2022/01/29 04:33:30;;;;;;;29.60;12.70;;;11.60;99.90;;;;;;5129384;28;20039;-76
2022/01/29 04:35:58;;;;;;;25.52;12.70;;;11.80;99.90;;;;;;5112096;28;20046;-74
2022/01/29 04:38:25;;;;;;;21.63;10.48;;;10.20;99.90;;;;;;5112166;28;20107;-75
2022/01/29 04:40:51;;;;;;;24.52;11.73;;;11.20;99.90;;;;;;5079251;28;20048;-74
2022/01/29 04:43:17;;;;;;;20.58;11.43;;;10.20;99.90;;;;;;5117851;28;20528;-76
2022/01/29 04:45:43;;;;;;;25.55;13.38;;;10.10;99.90;;;;;;5111777;28;20111;-75
2022/01/29 04:48:09;;;;;;;21.85;11.98;;;10.20;99.90;;;;;;5091462;28;20039;-75
2022/01/29 04:50:34;;;;;;;22.15;11.98;;;11.20;99.90;;;;;;5083600;28;20082;-75
2022/01/29 04:53:00;;;;;;;22.58;12.27;;;10.20;99.90;;;;;;5128289;28;20043;-75
2022/01/29 04:55:26;;;;;;;22.73;11.80;;;10.30;99.90;;;;;;5111804;28;20035;-75
2022/01/29 04:57:52;;;;;;;24.50;13.27;;;10.60;99.90;;;;;;5116122;28;20043;-74
2022/01/29 05:00:21;;;;;;;23.27;12.73;;;11.40;99.90;;;;;;5101601;28;20114;-74
2022/01/29 05:02:52;;;;;;;21.17;11.40;;;11.50;99.90;;;;;;5112558;27;20035;-75
2022/01/29 05:05:18;;;;;;;19.45;11.88;;;10.20;99.90;;;;;;5111293;27;20035;-75
2022/01/29 05:07:44;;;;;;;24.13;12.68;;;10.50;99.90;;;;;;5115195;27;20031;-74
2022/01/29 05:10:11;;;;;;;23.50;12.15;;;10.90;99.90;;;;;;5131838;27;20065;-75
2022/01/29 05:12:47;;;;;;;19.65;11.90;;;11.40;99.90;;;;;;5132871;27;20043;-74
2022/01/29 05:28:49;;;;;;;27.35;12.50;;;10.40;99.90;;;;;;5132872;27;20126;-75
2022/01/29 05:31:15;;;;;;;25.80;12.88;;;10.90;99.90;;;;;;5113737;27;20506;-74
2022/01/29 05:33:41;;;;;;;17.63;11.38;;;11.50;99.90;;;;;;5125595;27;20083;-74
2022/01/29 05:36:07;;;;;;;18.75;10.60;;;11.50;99.90;;;;;;5106429;27;20031;-73
2022/01/29 05:38:34;;;;;;;23.10;12.10;;;11.80;99.90;;;;;;5131685;27;20062;-73
2022/01/29 05:40:59;;;;;;;21.73;12.68;;;11.90;99.90;;;;;;5130912;27;20050;-74
2022/01/29 05:43:25;;;;;;;19.20;11.55;;;10.20;99.90;;;;;;5114685;27;20391;-74
2022/01/29 05:45:51;;;;;;;18.83;12.40;;;11.50;99.90;;;;;;5114026;27;20087;-74
2022/01/29 05:48:17;;;;;;;22.65;12.00;;;11.00;99.90;;;;;;5124734;27;20042;-74
2022/01/29 05:50:42;;;;;;;23.27;13.13;;;10.20;99.90;;;;;;5130804;27;20046;-73
2022/01/29 05:53:08;;;;;;;21.70;12.15;;;10.50;99.90;;;;;;5110231;27;20054;-73
2022/01/29 05:55:34;;;;;;;18.45;11.40;;;11.80;99.90;;;;;;5118531;27;20397;-74
2022/01/29 05:57:59;;;;;;;20.75;12.60;;;11.30;99.90;;;;;;5094371;27;20031;-74
2022/01/29 06:00:25;;;;;;;20.50;12.10;;;11.50;99.90;;;;;;5096265;27;21090;-75
2022/01/29 06:03:10;;;;;;;25.92;12.15;;;11.50;99.90;;;;;;5123829;27;20031;-74
2022/01/29 06:05:37;;;;;;;22.02;11.93;;;10.60;99.90;;;;;;5130162;27;20043;-74
2022/01/29 06:08:03;;;;;;;21.92;12.65;;;11.00;99.90;;;;;;5095474;27;20042;-74
2022/01/29 06:10:28;;;;;;;21.40;12.18;;;11.50;99.90;;;;;;5130716;27;20050;-74
2022/01/29 06:13:05;;;;;;;19.75;11.55;;;11.60;99.90;;;;;;5096063;27;20593;-74
2022/01/29 06:15:41;;;;;;;20.55;12.00;;;11.50;99.90;;;;;;5129446;27;20050;-74
2022/01/29 06:18:12;;;;;;;19.67;11.88;;;11.00;99.90;;;;;;5121453;27;20124;-73
2022/01/29 06:20:37;;;;;;;22.55;12.68;;;11.80;99.90;;;;;;5113218;27;20142;-73
2022/01/29 06:23:03;;;;;;;19.13;11.70;;;10.80;99.90;;;;;;5113755;27;20069;-74
2022/01/29 06:25:29;;;;;;;18.15;11.50;;;11.70;99.90;;;;;;5093159;28;20039;-74
2022/01/29 06:27:55;;;;;;;22.10;11.27;;;10.40;99.90;;;;;;5108089;27;20038;-74
2022/01/29 06:30:22;;;;;;;17.80;10.10;;;10.70;99.90;;;;;;5112660;27;20144;-73
2022/01/29 06:32:47;;;;;;;19.90;11.93;;;10.50;99.90;;;;;;5113419;27;20081;-73
2022/01/29 06:35:14;;;;;;;21.52;12.45;;;12.00;99.90;;;;;;5129352;27;20059;-74
2022/01/29 06:37:40;;;;;;;19.15;10.90;;;10.90;99.90;;;;;;5131585;27;20046;-74
2022/01/29 06:40:07;;;;;;;24.60;12.15;;;11.70;99.90;;;;;;5128104;27;20492;-76
2022/01/29 06:42:33;;;;;;;18.85;11.57;;;10.50;99.90;;;;;;5094341;27;20047;-74
2022/01/29 06:44:59;;;;;;;19.60;10.98;;;11.80;99.90;;;;;;5130743;27;20085;-73
2022/01/29 06:47:24;;;;;;;19.23;11.10;;;10.70;99.90;;;;;;5112089;27;20032;-74
2022/01/29 06:49:50;;;;;;;16.90;10.02;;;11.30;99.90;;;;;;5112184;27;20322;-74
2022/01/29 06:52:16;;;;;;;19.10;10.77;;;12.00;99.90;;;;;;5129937;27;20039;-74
2022/01/29 06:54:42;;;;;;;28.35;11.55;;;11.70;99.90;;;;;;5112705;27;20046;-74
2022/01/29 06:57:08;;;;;;;17.63;10.13;;;10.50;99.90;;;;;;5129714;27;20046;-74
2022/01/29 06:59:34;;;;;;;18.98;10.35;;;10.40;99.90;;;;;;5111524;27;20038;-73
2022/01/29 07:01:59;;;;;;;17.58;10.95;;;11.10;99.90;;;;;;5129893;27;20031;-73
2022/01/29 07:04:25;;;;;;;17.90;10.38;;;11.70;99.90;;;;;;5084107;28;20043;-74
2022/01/29 07:06:51;;;;;;;20.38;11.38;;;10.80;99.90;;;;;;5125313;27;20046;-73
2022/01/29 07:09:16;;;;;;;18.77;11.85;;;11.90;99.90;;;;;;5100294;27;20039;-73
2022/01/29 07:11:44;;;;;;;18.05;10.95;;;12.00;99.90;;;;;;5111259;27;20395;-73
2022/01/29 07:14:16;;;;;;;16.90;10.13;;;10.80;99.90;;;;;;5109676;28;20043;-74
2022/01/29 07:16:43;;;;;;;17.85;10.02;;;11.80;99.90;;;;;;5108141;27;20039;-73
2022/01/29 07:19:09;;;;;;;16.77;10.27;;;10.60;99.90;;;;;;5103940;27;20039;-74
2022/01/29 07:21:35;;;;;;;18.63;10.25;;;11.60;99.90;;;;;;5103713;27;20118;-75
2022/01/29 07:24:01;;;;;;;21.80;10.65;;;10.40;99.90;;;;;;5122444;27;20023;-74
2022/01/29 07:26:27;;;;;;;19.63;11.32;;;12.00;99.90;;;;;;5109310;27;20041;-74
2022/01/29 07:28:53;;;;;;;17.80;9.63;;;11.30;99.90;;;;;;5108410;27;20035;-77
2022/01/29 07:31:18;;;;;;;20.35;10.95;;;11.70;99.90;;;;;;5124506;27;20395;-75
2022/01/29 07:33:44;;;;;;;14.02;9.45;;;12.10;99.90;;;;;;5099744;28;20027;-76
2022/01/29 07:36:10;;;;;;;17.92;9.55;;;12.30;99.90;;;;;;5090059;27;20099;-74
2022/01/29 07:38:35;;;;;;;17.92;10.20;;;11.70;99.90;;;;;;5128243;27;20554;-74
2022/01/29 07:41:01;;;;;;;17.17;9.60;;;11.10;99.90;;;;;;5120185;27;20424;-74
2022/01/29 07:43:27;;;;;;;21.15;10.32;;;11.20;99.90;;;;;;5109813;27;20537;-74
2022/01/29 07:45:52;;;;;;;20.92;9.85;;;12.40;99.90;;;;;;5113872;27;20031;-73
2022/01/29 07:48:18;;;;;;;19.48;11.30;;;11.00;99.90;;;;;;5128907;28;20038;-75
2022/01/29 07:50:45;;;;;;;25.50;10.15;;;11.00;99.90;;;;;;5109216;27;20047;-75
2022/01/29 07:53:11;;;;;;;19.92;11.20;;;11.10;99.90;;;;;;5129582;27;20462;-75
2022/01/29 07:55:36;;;;;;;14.02;9.50;;;11.90;99.90;;;;;;5134807;27;20057;-76
2022/01/29 07:58:02;;;;;;;18.63;9.85;;;12.50;99.90;;;;;;5132534;27;20042;-76
2022/01/29 08:00:28;;;;;;;18.23;9.73;;;12.40;99.90;;;;;;5094921;28;20049;-75
2022/01/29 08:02:54;;;;;;;16.15;8.85;;;12.00;99.90;;;;;;5114107;27;20031;-77
2022/01/29 08:05:20;;;;;;;23.77;9.88;;;10.70;99.90;;;;;;5129731;27;20044;-76
2022/01/29 08:07:46;;;;;;;22.17;10.82;;;10.80;99.90;;;;;;5116868;27;20027;-75
2022/01/29 08:10:11;;;;;;;17.30;9.75;;;12.40;99.90;;;;;;5090478;27;20039;-75
2022/01/29 08:12:37;;;;;;;11.98;7.57;;;12.40;99.90;;;;;;5105289;27;20129;-75
2022/01/29 08:15:05;;;;;;;11.40;7.90;;;11.40;99.90;;;;;;5091177;28;20530;-75
2022/01/29 08:17:31;;;;;;;18.38;8.65;;;10.80;99.90;;;;;;5124598;27;20676;-74
2022/01/29 08:19:59;;;;;;;16.17;8.38;;;11.70;99.90;;;;;;5111682;28;20056;-74
2022/01/29 08:22:25;;;;;;;18.25;8.73;;;11.60;99.90;;;;;;5112257;27;20059;-75
2022/01/29 08:24:55;;;;;;;20.38;9.07;;;12.80;99.90;;;;;;5130676;27;20394;-74
2022/01/29 08:27:20;;;;;;;14.57;8.25;;;10.90;99.90;;;;;;5132543;27;20030;-74
2022/01/29 08:29:46;;;;;;;14.88;7.68;;;11.40;99.90;;;;;;5129222;27;20042;-73
2022/01/29 08:32:12;;;;;;;13.18;7.35;;;12.30;99.90;;;;;;5114700;27;20034;-74
2022/01/29 08:34:39;;;;;;;16.23;8.15;;;12.30;99.90;;;;;;5114018;27;20046;-75
2022/01/29 08:37:06;;;;;;;15.93;8.38;;;11.00;99.90;;;;;;5137253;27;20042;-74
2022/01/29 08:39:33;;;;;;;15.50;8.02;;;12.50;99.90;;;;;;5119387;27;20062;-74
2022/01/29 08:41:59;;;;;;;15.57;8.15;;;11.50;99.90;;;;;;5099680;27;20062;-74
2022/01/29 08:44:25;;;;;;;14.50;7.60;;;12.30;99.90;;;;;;5117324;27;20125;-74
2022/01/29 08:46:51;;;;;;;13.50;7.63;;;11.20;99.90;;;;;;5132700;27;20450;-75
2022/01/29 08:49:17;;;;;;;17.52;7.60;;;12.20;99.90;;;;;;5137287;27;20038;-75
2022/01/29 08:51:43;;;;;;;11.15;7.43;;;10.80;99.90;;;;;;5137567;27;20447;-74
2022/01/29 08:54:09;;;;;;;12.52;7.30;;;11.50;99.90;;;;;;5133962;27;20117;-75
2022/01/29 08:56:34;;;;;;;15.77;7.22;;;11.90;99.90;;;;;;5118628;27;20102;-74
2022/01/29 08:59:00;;;;;;;13.27;7.15;;;11.50;99.90;;;;;;5126777;27;20039;-74
2022/01/29 09:01:26;;;;;;;12.77;6.75;;;11.40;99.90;;;;;;5108496;27;20058;-75
2022/01/29 09:03:52;;;;;;;12.52;6.63;;;11.30;99.90;;;;;;5130943;27;20066;-76
2022/01/29 09:06:18;;;;;;;12.60;6.15;;;12.20;99.90;;;;;;5116363;27;20141;-76
2022/01/29 09:08:49;;;;;;;13.20;6.47;;;10.60;99.90;;;;;;5118806;27;20034;-72
2022/01/29 09:11:16;;;;;;;11.32;6.28;;;12.00;99.90;;;;;;5116132;27;20049;-74
2022/01/29 09:13:42;;;;;;;10.48;5.75;;;11.60;99.90;;;;;;5087476;27;20521;-76
2022/01/29 09:16:08;;;;;;;11.40;5.95;;;11.60;99.90;;;;;;5135118;27;20046;-72
2022/01/29 09:18:34;;;;;;;10.32;5.45;;;11.90;99.90;;;;;;5133664;27;20046;-73
2022/01/29 09:20:59;;;;;;;12.18;6.22;;;11.30;99.90;;;;;;5135765;27;20053;-73
2022/01/29 09:23:25;;;;;;;16.13;6.05;;;11.80;99.90;;;;;;5096657;27;20035;-72
2022/01/29 09:25:55;;;;;;;8.13;4.90;;;11.50;99.90;;;;;;5133043;27;20044;-73
2022/01/29 09:28:22;;;;;;;9.88;5.45;;;10.80;99.90;;;;;;5111796;27;20035;-72
2022/01/29 09:30:49;;;;;;;9.25;4.63;;;11.90;99.90;;;;;;5130217;27;20054;-73
2022/01/29 09:33:16;;;;;;;9.38;4.63;;;11.30;99.90;;;;;;5133037;27;20034;-72
2022/01/29 09:35:42;;;;;;;8.77;4.68;;;10.50;99.90;;;;;;5123701;27;20089;-72
2022/01/29 09:38:10;;;;;;;9.80;5.13;;;11.50;99.90;;;;;;5093564;27;20422;-73
2022/01/29 09:40:37;;;;;;;8.77;4.90;;;11.40;99.90;;;;;;5127482;27;20704;-72
2022/01/29 09:43:06;;;;;;;9.63;4.20;;;11.30;99.90;;;;;;5127719;27;21632;-72
2022/01/29 09:45:32;;;;;;;8.65;4.18;;;11.60;99.90;;;;;;5126540;27;20046;-72
2022/01/29 09:48:04;;;;;;;11.75;5.28;;;11.80;99.90;;;;;;5126273;27;20145;-72
2022/01/29 09:50:33;;;;;;;8.05;4.65;;;10.50;99.90;;;;;;5126549;27;20046;-72
2022/01/29 09:53:00;;;;;;;9.32;4.55;;;10.70;99.90;;;;;;5127880;27;20035;-73
2022/01/29 09:55:26;;;;;;;10.20;3.85;;;10.70;99.90;;;;;;5110000;27;20049;-73
2022/01/29 09:57:53;;;;;;;7.78;3.63;;;11.70;99.90;;;;;;5108133;27;20038;-73
2022/01/29 10:00:20;;;;;;;9.40;4.10;;;10.90;99.90;;;;;;5109483;27;20045;-73
2022/01/29 10:03:11;;;;;;;7.70;3.80;;;11.80;99.90;;;;;;5123945;27;20050;-72
2022/01/29 10:06:00;;;;;;;10.50;4.10;;;11.30;99.90;;;;;;5101981;27;20130;-73
2022/01/29 10:08:27;;;;;;;9.63;4.03;;;10.60;99.90;;;;;;5126230;27;20146;-73
2022/01/29 10:10:58;;;;;;;5.53;3.92;;;11.30;99.90;;;;;;5127294;27;20527;-72
2022/01/29 10:13:35;;;;;;;7.38;3.45;;;11.00;99.90;;;;;;5126541;27;20047;-72
2022/01/29 10:16:15;;;;;;;7.22;3.72;;;11.00;99.90;;;;;;5127648;27;20046;-72
2022/01/29 10:19:06;;;;;;;9.68;3.38;;;11.50;99.90;;;;;;5120576;27;20487;-73
2022/01/29 10:21:44;;;;;;;6.00;3.22;;;11.60;99.90;;;;;;5117033;27;20669;-72
2022/01/29 10:24:13;;;;;;;13.82;3.60;;;11.00;99.90;;;;;;5124535;27;20042;-73
2022/01/29 10:26:41;;;;;;;7.80;3.00;;;11.00;99.90;;;;;;5126155;27;20049;-72
2022/01/29 10:29:28;;;;;;;11.25;3.50;;;10.80;99.90;;;;;;5126238;27;20057;-72
2022/01/29 10:31:56;;;;;;;7.85;3.42;;;11.40;99.90;;;;;;5109901;27;20058;-72
2022/01/29 10:34:30;;;;;;;8.32;3.40;;;11.90;99.90;;;;;;5127093;27;20043;-72
2022/01/29 10:37:14;;;;;;;10.30;2.90;;;11.60;99.90;;;;;;5106704;27;20051;-72
2022/01/29 10:40:01;;;;;;;6.07;2.72;;;10.80;99.90;;;;;;5101077;27;20413;-71
2022/01/29 10:42:27;;;;;;;7.57;2.58;;;11.30;99.90;;;;;;5091678;27;20119;-72
2022/01/29 10:44:55;;;;;;;4.57;2.40;;;11.70;99.90;;;;;;5126962;27;20510;-72
2022/01/29 10:47:22;;;;;;;3.67;2.40;;;10.80;99.90;;;;;;5126873;27;20043;-71
2022/01/29 10:49:53;;;;;;;8.48;2.60;;;11.50;99.90;;;;;;5109252;27;20047;-71
2022/01/29 10:52:29;;;;;;;7.95;2.47;;;10.80;99.90;;;;;;5127305;27;20039;-72
2022/01/29 10:54:59;;;;;;;5.78;2.22;;;11.60;99.90;;;;;;5127146;27;20038;-72
2022/01/29 10:57:34;;;;;;;10.48;2.45;;;10.80;99.90;;;;;;5126810;27;20388;-72
2022/01/29 11:00:03;;;;;;;10.25;2.85;;;11.70;99.90;;;;;;5108974;27;20057;-70
2022/01/29 11:02:30;;;;;;;7.93;2.80;;;11.40;99.90;;;;;;5104681;27;20051;-71
2022/01/29 11:04:57;;;;;;;7.05;2.30;;;11.40;99.90;;;;;;5109748;27;20042;-71
2022/01/29 11:07:28;;;;;;;6.40;2.85;;;11.50;99.90;;;;;;5123323;27;20222;-71
2022/01/29 11:09:54;;;;;;;7.50;2.30;;;11.40;99.90;;;;;;5109076;27;20481;-73
2022/01/29 11:12:25;;;;;;;6.70;2.42;;;11.40;99.90;;;;;;5108565;27;20070;-72
2022/01/29 11:14:53;;;;;;;6.25;2.42;;;11.50;99.90;;;;;;5114969;27;20491;-72
2022/01/29 11:17:22;;;;;;;7.55;2.60;;;10.70;99.90;;;;;;5117762;27;20041;-70
2022/01/29 11:19:47;;;;;;;7.15;2.25;;;11.50;99.90;;;;;;5115457;27;20137;-71
2022/01/29 11:22:25;;;;;;;5.82;2.50;;;11.00;99.90;;;;;;5123471;27;20035;-72
2022/01/29 11:25:00;;;;;;;5.40;2.78;;;11.50;99.90;;;;;;5121198;27;20046;-72
2022/01/29 11:27:29;;;;;;;4.57;2.10;;;11.30;99.90;;;;;;5108961;27;20682;-73
2022/01/29 11:30:04;;;;;;;7.95;2.00;;;11.20;99.90;;;;;;5089156;27;20039;-72
2022/01/29 11:32:33;;;;;;;11.32;2.65;;;11.50;99.90;;;;;;5120636;27;20039;-72
2022/01/29 11:35:24;;;;;;;6.82;2.67;;;11.60;99.90;;;;;;5123575;27;20070;-72
2022/01/29 11:37:57;;;;;;;7.85;2.60;;;11.60;99.90;;;;;;5124246;27;20046;-73
2022/01/29 11:40:38;;;;;;;4.13;2.17;;;11.40;99.90;;;;;;5126421;27;20567;-72
2022/01/29 11:43:10;;;;;;;7.97;2.47;;;11.50;99.90;;;;;;5125485;27;20035;-72
2022/01/29 11:45:44;;;;;;;4.70;2.05;;;11.40;99.90;;;;;;5126551;27;20101;-72
2022/01/29 11:48:33;;;;;;;9.60;2.23;;;10.80;99.90;;;;;;5125407;27;20711;-72
2022/01/29 11:50:59;;;;;;;8.43;2.45;;;11.10;99.90;;;;;;5125285;27;20053;-72
2022/01/29 11:53:46;;;;;;;6.50;2.55;;;10.90;99.90;;;;;;5125625;27;20063;-71
2022/01/29 11:56:36;;;;;;;5.55;2.20;;;11.60;99.90;;;;;;5131330;27;20566;-72
2022/01/29 11:59:20;;;;;;;6.97;1.95;;;11.10;99.90;;;;;;5113394;27;20054;-71
2022/01/29 12:01:48;;;;;;;5.72;2.05;;;10.90;99.90;;;;;;5124649;27;20039;-70
2022/01/29 12:04:16;;;;;;;6.80;2.08;;;11.10;99.90;;;;;;5123966;27;20478;-72
2022/01/29 12:07:22;;;;;;;6.72;1.90;;;11.30;99.90;;;;;;5122333;27;20038;-71
2022/01/29 12:09:49;;;;;;;5.07;2.20;;;11.20;99.90;;;;;;5065908;27;20067;-71
2022/01/29 12:12:16;;;;;;;6.00;2.10;;;11.10;99.90;;;;;;5113478;27;20047;-71
2022/01/29 12:14:44;;;;;;;7.43;1.98;;;11.50;99.90;;;;;;5129143;27;20530;-72
2022/01/29 12:17:10;;;;;;;5.82;2.28;;;11.00;99.90;;;;;;5127914;27;20074;-71
2022/01/29 12:19:46;;;;;;;5.45;1.92;;;11.00;99.90;;;;;;5128289;27;20042;-71
2022/01/29 12:22:21;;;;;;;10.10;1.98;;;11.10;99.90;;;;;;5126346;27;20897;-72
2022/01/29 12:24:59;;;;;;;6.18;1.80;;;11.80;99.90;;;;;;5128169;27;20130;-70
2022/01/29 12:27:43;;;;;;;5.50;1.90;;;11.80;99.90;;;;;;5126780;27;20078;-72
2022/01/29 12:30:10;;;;;;;5.35;1.70;;;11.40;99.90;;;;;;5138677;27;20054;-71
2022/01/29 12:32:35;;;;;;;6.00;1.98;;;11.60;99.90;;;;;;5128793;27;20049;-72
2022/01/29 12:35:03;;;;;;;9.35;2.10;;;11.70;99.90;;;;;;5128853;27;20042;-71
2022/01/29 12:37:30;;;;;;;8.50;2.33;;;11.70;99.90;;;;;;5129462;27;20140;-71
2022/01/29 12:40:18;;;;;;;8.77;1.70;;;11.70;99.90;;;;;;5128427;27;20050;-70
2022/01/29 12:42:54;;;;;;;6.05;2.00;;;11.50;99.90;;;;;;5128830;27;20060;-73
2022/01/29 12:45:21;;;;;;;7.90;1.83;;;11.30;99.90;;;;;;5129458;27;20125;-73
2022/01/29 12:47:47;;;;;;;10.10;2.35;;;11.30;99.90;;;;;;5127996;27;20043;-72
2022/01/29 12:50:20;;;;;;;6.82;1.73;;;11.50;99.90;;;;;;5128667;27;20043;-71
2022/01/29 12:52:46;;;;;;;8.05;2.08;;;11.70;99.90;;;;;;5128930;27;20077;-73